sensor_id;sensor_type;location;lat;lon;timestamp;temperature;humidity
66019;HTU21D;52787;51.084;5.816;2022-08-02T00:01:51;21.13;61.60
66019;HTU21D;52787;51.084;5.816;2022-08-02T00:04:17;21.17;61.96
66019;HTU21D;52787;51.084;5.816;2022-08-02T00:06:43;21.17;61.22
66019;HTU21D;52787;51.084;5.816;2022-08-02T00:09:09;21.14;60.71
66019;HTU21D;52787;51.084;5.816;2022-08-02T00:11:35;21.08;60.62
66019;HTU21D;52787;51.084;5.816;2022-08-02T00:14:00;21.06;61.03
66019;HTU21D;52787;51.084;5.816;2022-08-02T00:16:26;21.04;61.23
66019;HTU21D;52787;51.084;5.816;2022-08-02T00:18:52;21.02;61.75
66019;HTU21D;52787;51.084;5.816;2022-08-02T00:21:18;21.02;62.05
66019;HTU21D;52787;51.084;5.816;2022-08-02T00:23:44;21.05;61.76
66019;HTU21D;52787;51.084;5.816;2022-08-02T00:26:09;21.05;61.38
66019;HTU21D;52787;51.084;5.816;2022-08-02T00:28:35;21.00;61.75
66019;HTU21D;52787;51.084;5.816;2022-08-02T00:31:01;20.95;61.77
66019;HTU21D;52787;51.084;5.816;2022-08-02T00:33:27;20.93;61.94
66019;HTU21D;52787;51.084;5.816;2022-08-02T00:35:53;20.86;62.42
66019;HTU21D;52787;51.084;5.816;2022-08-02T00:38:19;20.86;62.92
66019;HTU21D;52787;51.084;5.816;2022-08-02T00:40:49;20.83;63.15
66019;HTU21D;52787;51.084;5.816;2022-08-02T00:43:16;20.87;62.78
66019;HTU21D;52787;51.084;5.816;2022-08-02T00:45:43;20.93;62.53
66019;HTU21D;52787;51.084;5.816;2022-08-02T00:48:10;20.98;62.38
66019;HTU21D;52787;51.084;5.816;2022-08-02T00:50:37;20.91;62.90
66019;HTU21D;52787;51.084;5.816;2022-08-02T00:53:05;20.89;63.06
66019;HTU21D;52787;51.084;5.816;2022-08-02T00:55:31;20.84;62.41
66019;HTU21D;52787;51.084;5.816;2022-08-02T00:57:57;20.80;62.22
66019;HTU21D;52787;51.084;5.816;2022-08-02T01:00:23;20.78;62.09
66019;HTU21D;52787;51.084;5.816;2022-08-02T01:02:49;20.75;62.18
66019;HTU21D;52787;51.084;5.816;2022-08-02T01:05:15;20.76;62.60
66019;HTU21D;52787;51.084;5.816;2022-08-02T01:07:41;20.79;62.74
66019;HTU21D;52787;51.084;5.816;2022-08-02T01:10:07;20.83;62.61
66019;HTU21D;52787;51.084;5.816;2022-08-02T01:12:33;20.86;62.66
66019;HTU21D;52787;51.084;5.816;2022-08-02T01:15:04;20.88;62.10
66019;HTU21D;52787;51.084;5.816;2022-08-02T01:17:46;20.91;62.02
66019;HTU21D;52787;51.084;5.816;2022-08-02T01:23:34;20.92;62.21
66019;HTU21D;52787;51.084;5.816;2022-08-02T01:31:38;20.69;62.76
66019;HTU21D;52787;51.084;5.816;2022-08-02T01:34:38;20.60;63.37
66019;HTU21D;52787;51.084;5.816;2022-08-02T01:37:26;20.64;63.05
66019;HTU21D;52787;51.084;5.816;2022-08-02T01:39:57;20.68;63.36
66019;HTU21D;52787;51.084;5.816;2022-08-02T01:42:30;20.68;63.79
66019;HTU21D;52787;51.084;5.816;2022-08-02T01:44:59;20.66;63.95
66019;HTU21D;52787;51.084;5.816;2022-08-02T01:47:30;20.70;63.74
66019;HTU21D;52787;51.084;5.816;2022-08-02T01:50:02;20.66;63.86
66019;HTU21D;52787;51.084;5.816;2022-08-02T01:52:32;20.60;64.03
66019;HTU21D;52787;51.084;5.816;2022-08-02T01:58:10;20.47;65.16
66019;HTU21D;52787;51.084;5.816;2022-08-02T02:00:40;20.50;64.96
66019;HTU21D;52787;51.084;5.816;2022-08-02T02:03:12;20.54;64.89
66019;HTU21D;52787;51.084;5.816;2022-08-02T02:05:43;20.55;64.95
66019;HTU21D;52787;51.084;5.816;2022-08-02T02:08:13;20.54;64.66
66019;HTU21D;52787;51.084;5.816;2022-08-02T02:10:41;20.42;65.36
66019;HTU21D;52787;51.084;5.816;2022-08-02T02:13:13;20.37;65.71
66019;HTU21D;52787;51.084;5.816;2022-08-02T02:15:47;20.36;65.53
66019;HTU21D;52787;51.084;5.816;2022-08-02T02:18:23;20.33;65.45
66019;HTU21D;52787;51.084;5.816;2022-08-02T02:20:50;20.31;65.60
66019;HTU21D;52787;51.084;5.816;2022-08-02T02:23:17;20.29;65.78
66019;HTU21D;52787;51.084;5.816;2022-08-02T02:25:44;20.27;65.58
66019;HTU21D;52787;51.084;5.816;2022-08-02T02:28:24;20.19;65.71
66019;HTU21D;52787;51.084;5.816;2022-08-02T02:31:05;20.07;66.43
66019;HTU21D;52787;51.084;5.816;2022-08-02T02:33:36;20.04;66.46
66019;HTU21D;52787;51.084;5.816;2022-08-02T02:36:06;20.02;66.65
66019;HTU21D;52787;51.084;5.816;2022-08-02T02:38:35;20.02;66.52
66019;HTU21D;52787;51.084;5.816;2022-08-02T02:41:04;19.95;66.47
66019;HTU21D;52787;51.084;5.816;2022-08-02T02:43:32;19.89;66.94
66019;HTU21D;52787;51.084;5.816;2022-08-02T02:46:02;19.91;67.23
66019;HTU21D;52787;51.084;5.816;2022-08-02T02:48:28;19.89;67.72
66019;HTU21D;52787;51.084;5.816;2022-08-02T02:50:56;19.89;67.63
66019;HTU21D;52787;51.084;5.816;2022-08-02T02:53:23;19.87;67.17
66019;HTU21D;52787;51.084;5.816;2022-08-02T02:55:49;19.86;67.32
66019;HTU21D;52787;51.084;5.816;2022-08-02T02:58:16;19.85;67.47
66019;HTU21D;52787;51.084;5.816;2022-08-02T03:00:42;19.85;67.52
66019;HTU21D;52787;51.084;5.816;2022-08-02T03:03:28;19.77;67.72
66019;HTU21D;52787;51.084;5.816;2022-08-02T03:05:54;19.76;68.00
66019;HTU21D;52787;51.084;5.816;2022-08-02T03:08:20;19.81;67.90
66019;HTU21D;52787;51.084;5.816;2022-08-02T03:10:47;19.82;67.91
66019;HTU21D;52787;51.084;5.816;2022-08-02T03:13:13;19.85;67.97
66019;HTU21D;52787;51.084;5.816;2022-08-02T03:15:40;19.85;68.06
66019;HTU21D;52787;51.084;5.816;2022-08-02T03:18:06;19.86;67.68
66019;HTU21D;52787;51.084;5.816;2022-08-02T03:20:33;19.76;67.46
66019;HTU21D;52787;51.084;5.816;2022-08-02T03:22:59;19.68;67.81
66019;HTU21D;52787;51.084;5.816;2022-08-02T03:25:25;19.61;68.10
66019;HTU21D;52787;51.084;5.816;2022-08-02T03:27:51;19.57;68.84
66019;HTU21D;52787;51.084;5.816;2022-08-02T03:30:17;19.52;68.68
66019;HTU21D;52787;51.084;5.816;2022-08-02T03:32:46;19.51;68.87
66019;HTU21D;52787;51.084;5.816;2022-08-02T03:35:15;19.54;68.85
66019;HTU21D;52787;51.084;5.816;2022-08-02T03:37:43;19.51;69.06
66019;HTU21D;52787;51.084;5.816;2022-08-02T03:40:11;19.55;68.57
66019;HTU21D;52787;51.084;5.816;2022-08-02T03:42:38;19.52;69.00
66019;HTU21D;52787;51.084;5.816;2022-08-02T03:45:09;19.51;69.08
66019;HTU21D;52787;51.084;5.816;2022-08-02T03:47:38;19.51;68.91
66019;HTU21D;52787;51.084;5.816;2022-08-02T03:50:06;19.43;68.65
66019;HTU21D;52787;51.084;5.816;2022-08-02T03:52:34;19.35;68.97
66019;HTU21D;52787;51.084;5.816;2022-08-02T03:55:01;19.30;69.13
66019;HTU21D;52787;51.084;5.816;2022-08-02T03:57:27;19.28;69.49
66019;HTU21D;52787;51.084;5.816;2022-08-02T03:59:53;19.26;69.48
66019;HTU21D;52787;51.084;5.816;2022-08-02T04:02:18;19.26;69.80
66019;HTU21D;52787;51.084;5.816;2022-08-02T04:04:44;19.29;70.13
66019;HTU21D;52787;51.084;5.816;2022-08-02T04:07:10;19.37;69.65
66019;HTU21D;52787;51.084;5.816;2022-08-02T04:09:36;19.42;69.34
66019;HTU21D;52787;51.084;5.816;2022-08-02T04:12:01;19.40;69.33
66019;HTU21D;52787;51.084;5.816;2022-08-02T04:14:28;19.32;69.58
66019;HTU21D;52787;51.084;5.816;2022-08-02T04:16:59;19.31;69.87
66019;HTU21D;52787;51.084;5.816;2022-08-02T04:19:31;19.30;70.06
66019;HTU21D;52787;51.084;5.816;2022-08-02T04:22:02;19.27;70.16
66019;HTU21D;52787;51.084;5.816;2022-08-02T04:24:35;19.26;70.29
66019;HTU21D;52787;51.084;5.816;2022-08-02T04:27:04;19.27;70.36
66019;HTU21D;52787;51.084;5.816;2022-08-02T04:29:31;19.35;69.97
66019;HTU21D;52787;51.084;5.816;2022-08-02T04:31:58;19.42;69.52
66019;HTU21D;52787;51.084;5.816;2022-08-02T04:34:24;19.52;69.39
66019;HTU21D;52787;51.084;5.816;2022-08-02T04:36:50;19.57;69.33
66019;HTU21D;52787;51.084;5.816;2022-08-02T04:39:18;19.65;69.22
66019;HTU21D;52787;51.084;5.816;2022-08-02T04:41:44;19.72;68.95
66019;HTU21D;52787;51.084;5.816;2022-08-02T04:44:13;19.69;69.06
66019;HTU21D;52787;51.084;5.816;2022-08-02T04:46:40;19.66;69.03
66019;HTU21D;52787;51.084;5.816;2022-08-02T04:49:06;19.58;69.44
66019;HTU21D;52787;51.084;5.816;2022-08-02T04:51:39;19.57;69.52
66019;HTU21D;52787;51.084;5.816;2022-08-02T04:54:08;19.58;69.52
66019;HTU21D;52787;51.084;5.816;2022-08-02T04:56:39;19.55;69.44
66019;HTU21D;52787;51.084;5.816;2022-08-02T04:59:06;19.51;69.90
66019;HTU21D;52787;51.084;5.816;2022-08-02T05:01:32;19.53;69.81
66019;HTU21D;52787;51.084;5.816;2022-08-02T05:03:59;19.60;69.94
66019;HTU21D;52787;51.084;5.816;2022-08-02T05:06:25;19.63;69.48
66019;HTU21D;52787;51.084;5.816;2022-08-02T05:08:51;19.61;69.51
66019;HTU21D;52787;51.084;5.816;2022-08-02T05:11:17;19.62;69.36
66019;HTU21D;52787;51.084;5.816;2022-08-02T05:13:43;19.62;69.46
66019;HTU21D;52787;51.084;5.816;2022-08-02T05:16:08;19.66;69.55
66019;HTU21D;52787;51.084;5.816;2022-08-02T05:18:34;19.66;69.68
66019;HTU21D;52787;51.084;5.816;2022-08-02T05:21:00;19.71;69.32
66019;HTU21D;52787;51.084;5.816;2022-08-02T05:23:26;19.72;69.38
66019;HTU21D;52787;51.084;5.816;2022-08-02T05:25:52;19.75;69.18
66019;HTU21D;52787;51.084;5.816;2022-08-02T05:28:17;19.80;69.11
66019;HTU21D;52787;51.084;5.816;2022-08-02T05:30:43;19.84;69.10
66019;HTU21D;52787;51.084;5.816;2022-08-02T05:33:09;19.89;69.12
66019;HTU21D;52787;51.084;5.816;2022-08-02T05:35:35;19.99;69.00
66019;HTU21D;52787;51.084;5.816;2022-08-02T05:38:01;20.06;69.01
66019;HTU21D;52787;51.084;5.816;2022-08-02T05:40:27;20.13;69.30
66019;HTU21D;52787;51.084;5.816;2022-08-02T05:42:53;20.17;68.97
66019;HTU21D;52787;51.084;5.816;2022-08-02T05:45:19;20.26;68.38
66019;HTU21D;52787;51.084;5.816;2022-08-02T05:47:45;20.31;68.07
66019;HTU21D;52787;51.084;5.816;2022-08-02T05:50:11;20.27;68.70
66019;HTU21D;52787;51.084;5.816;2022-08-02T05:55:16;20.26;69.84
66019;HTU21D;52787;51.084;5.816;2022-08-02T05:58:01;20.24;70.40
66019;HTU21D;52787;51.084;5.816;2022-08-02T06:00:32;20.20;70.73
66019;HTU21D;52787;51.084;5.816;2022-08-02T06:03:13;20.25;70.93
66019;HTU21D;52787;51.084;5.816;2022-08-02T06:05:50;20.30;71.26
66019;HTU21D;52787;51.084;5.816;2022-08-02T06:08:24;20.36;71.47
66019;HTU21D;52787;51.084;5.816;2022-08-02T06:11:00;20.45;71.61
66019;HTU21D;52787;51.084;5.816;2022-08-02T06:13:28;20.51;71.64
66019;HTU21D;52787;51.084;5.816;2022-08-02T06:15:54;20.59;71.79
66019;HTU21D;52787;51.084;5.816;2022-08-02T06:18:26;20.65;71.64
66019;HTU21D;52787;51.084;5.816;2022-08-02T06:20:56;20.76;71.68
66019;HTU21D;52787;51.084;5.816;2022-08-02T06:23:25;20.84;70.97
66019;HTU21D;52787;51.084;5.816;2022-08-02T06:25:52;20.87;70.90
66019;HTU21D;52787;51.084;5.816;2022-08-02T06:28:19;20.96;70.83
66019;HTU21D;52787;51.084;5.816;2022-08-02T06:30:45;21.02;70.66
66019;HTU21D;52787;51.084;5.816;2022-08-02T06:33:11;21.06;70.63
66019;HTU21D;52787;51.084;5.816;2022-08-02T06:36:07;21.15;70.48
66019;HTU21D;52787;51.084;5.816;2022-08-02T06:39:02;21.18;70.59
66019;HTU21D;52787;51.084;5.816;2022-08-02T06:41:37;21.24;70.27
66019;HTU21D;52787;51.084;5.816;2022-08-02T06:44:07;21.29;70.03
66019;HTU21D;52787;51.084;5.816;2022-08-02T06:46:34;21.36;69.81
66019;HTU21D;52787;51.084;5.816;2022-08-02T06:49:00;21.48;69.59
66019;HTU21D;52787;51.084;5.816;2022-08-02T06:51:27;21.62;69.01
66019;HTU21D;52787;51.084;5.816;2022-08-02T06:53:54;21.75;68.68
66019;HTU21D;52787;51.084;5.816;2022-08-02T06:56:20;21.88;68.14
66019;HTU21D;52787;51.084;5.816;2022-08-02T06:58:46;21.94;67.74
66019;HTU21D;52787;51.084;5.816;2022-08-02T07:01:12;22.05;67.62
66019;HTU21D;52787;51.084;5.816;2022-08-02T07:03:39;22.09;67.74
66019;HTU21D;52787;51.084;5.816;2022-08-02T07:06:07;22.20;67.50
66019;HTU21D;52787;51.084;5.816;2022-08-02T07:08:34;22.26;67.11
66019;HTU21D;52787;51.084;5.816;2022-08-02T07:11:07;22.33;66.76
66019;HTU21D;52787;51.084;5.816;2022-08-02T07:13:34;22.35;66.98
66019;HTU21D;52787;51.084;5.816;2022-08-02T07:16:02;22.42;66.80
66019;HTU21D;52787;51.084;5.816;2022-08-02T07:18:29;22.50;66.34
66019;HTU21D;52787;51.084;5.816;2022-08-02T07:20:55;22.55;66.04
66019;HTU21D;52787;51.084;5.816;2022-08-02T07:23:20;22.58;65.49
66019;HTU21D;52787;51.084;5.816;2022-08-02T07:25:47;22.60;65.72
66019;HTU21D;52787;51.084;5.816;2022-08-02T07:28:13;22.67;65.83
66019;HTU21D;52787;51.084;5.816;2022-08-02T07:30:42;22.67;65.45
66019;HTU21D;52787;51.084;5.816;2022-08-02T07:33:09;22.70;65.34
66019;HTU21D;52787;51.084;5.816;2022-08-02T07:35:35;22.77;65.45
66019;HTU21D;52787;51.084;5.816;2022-08-02T07:38:01;22.84;65.08
66019;HTU21D;52787;51.084;5.816;2022-08-02T07:40:28;22.96;64.43
66019;HTU21D;52787;51.084;5.816;2022-08-02T07:42:55;23.01;64.82
66019;HTU21D;52787;51.084;5.816;2022-08-02T07:45:23;23.12;64.41
66019;HTU21D;52787;51.084;5.816;2022-08-02T07:47:50;23.26;64.07
66019;HTU21D;52787;51.084;5.816;2022-08-02T07:50:18;23.34;63.50
66019;HTU21D;52787;51.084;5.816;2022-08-02T07:52:46;23.44;63.27
66019;HTU21D;52787;51.084;5.816;2022-08-02T07:55:14;23.46;62.78
66019;HTU21D;52787;51.084;5.816;2022-08-02T07:57:41;23.53;62.82
66019;HTU21D;52787;51.084;5.816;2022-08-02T08:00:07;23.61;62.67
66019;HTU21D;52787;51.084;5.816;2022-08-02T08:02:36;23.65;62.08
66019;HTU21D;52787;51.084;5.816;2022-08-02T08:05:03;23.71;62.24
66019;HTU21D;52787;51.084;5.816;2022-08-02T08:07:31;23.85;61.82
66019;HTU21D;52787;51.084;5.816;2022-08-02T08:09:58;23.94;61.81
66019;HTU21D;52787;51.084;5.816;2022-08-02T08:12:25;24.03;61.50
66019;HTU21D;52787;51.084;5.816;2022-08-02T08:14:51;24.13;61.20
66019;HTU21D;52787;51.084;5.816;2022-08-02T08:17:18;24.19;61.21
66019;HTU21D;52787;51.084;5.816;2022-08-02T08:19:44;24.32;60.49
66019;HTU21D;52787;51.084;5.816;2022-08-02T08:22:10;24.41;60.33
66019;HTU21D;52787;51.084;5.816;2022-08-02T08:24:35;24.48;60.29
66019;HTU21D;52787;51.084;5.816;2022-08-02T08:27:04;24.57;59.90
66019;HTU21D;52787;51.084;5.816;2022-08-02T08:29:30;24.68;59.85
66019;HTU21D;52787;51.084;5.816;2022-08-02T08:31:56;24.78;59.22
66019;HTU21D;52787;51.084;5.816;2022-08-02T08:34:22;24.89;58.48
66019;HTU21D;52787;51.084;5.816;2022-08-02T08:36:49;24.95;58.46
66019;HTU21D;52787;51.084;5.816;2022-08-02T08:39:15;25.05;57.90
66019;HTU21D;52787;51.084;5.816;2022-08-02T08:41:42;25.14;57.11
66019;HTU21D;52787;51.084;5.816;2022-08-02T08:44:08;25.23;57.39
66019;HTU21D;52787;51.084;5.816;2022-08-02T08:46:36;25.33;56.28
66019;HTU21D;52787;51.084;5.816;2022-08-02T08:49:09;25.37;56.24
66019;HTU21D;52787;51.084;5.816;2022-08-02T08:51:41;25.44;56.09
66019;HTU21D;52787;51.084;5.816;2022-08-02T08:54:13;25.54;56.10
66019;HTU21D;52787;51.084;5.816;2022-08-02T08:56:42;25.64;55.98
66019;HTU21D;52787;51.084;5.816;2022-08-02T08:59:08;25.75;55.48
66019;HTU21D;52787;51.084;5.816;2022-08-02T09:01:34;25.86;54.68
66019;HTU21D;52787;51.084;5.816;2022-08-02T09:04:00;25.90;54.67
66019;HTU21D;52787;51.084;5.816;2022-08-02T09:06:26;25.99;54.09
66019;HTU21D;52787;51.084;5.816;2022-08-02T09:08:52;26.04;54.06
66019;HTU21D;52787;51.084;5.816;2022-08-02T09:11:22;26.11;53.36
66019;HTU21D;52787;51.084;5.816;2022-08-02T09:13:58;26.09;52.03
66019;HTU21D;52787;51.084;5.816;2022-08-02T09:16:39;26.07;52.65
66019;HTU21D;52787;51.084;5.816;2022-08-02T09:19:23;26.07;53.21
66019;HTU21D;52787;51.084;5.816;2022-08-02T09:21:59;26.12;53.28
66019;HTU21D;52787;51.084;5.816;2022-08-02T09:24:26;26.21;52.85
66019;HTU21D;52787;51.084;5.816;2022-08-02T09:26:52;26.28;52.41
66019;HTU21D;52787;51.084;5.816;2022-08-02T09:29:23;26.37;52.25
66019;HTU21D;52787;51.084;5.816;2022-08-02T09:31:49;26.41;52.12
66019;HTU21D;52787;51.084;5.816;2022-08-02T09:34:16;26.48;52.42
66019;HTU21D;52787;51.084;5.816;2022-08-02T09:36:44;26.56;51.95
66019;HTU21D;52787;51.084;5.816;2022-08-02T09:39:15;26.62;51.29
66019;HTU21D;52787;51.084;5.816;2022-08-02T09:41:43;26.70;51.95
66019;HTU21D;52787;51.084;5.816;2022-08-02T09:44:13;26.81;51.23
66019;HTU21D;52787;51.084;5.816;2022-08-02T09:46:43;26.92;51.24
66019;HTU21D;52787;51.084;5.816;2022-08-02T09:49:12;27.05;51.14
66019;HTU21D;52787;51.084;5.816;2022-08-02T09:54:16;27.34;49.95
66019;HTU21D;52787;51.084;5.816;2022-08-02T09:56:49;27.45;49.75
66019;HTU21D;52787;51.084;5.816;2022-08-02T09:59:23;27.55;48.47
66019;HTU21D;52787;51.084;5.816;2022-08-02T10:01:51;27.54;47.76
66019;HTU21D;52787;51.084;5.816;2022-08-02T10:04:21;27.50;48.28
66019;HTU21D;52787;51.084;5.816;2022-08-02T10:06:49;27.40;48.73
66019;HTU21D;52787;51.084;5.816;2022-08-02T10:09:17;27.38;48.77
66019;HTU21D;52787;51.084;5.816;2022-08-02T10:11:43;27.37;48.70
66019;HTU21D;52787;51.084;5.816;2022-08-02T10:14:10;27.37;48.60
66019;HTU21D;52787;51.084;5.816;2022-08-02T10:16:41;27.39;49.15
66019;HTU21D;52787;51.084;5.816;2022-08-02T10:19:08;27.41;48.47
66019;HTU21D;52787;51.084;5.816;2022-08-02T10:21:48;27.41;48.70
66019;HTU21D;52787;51.084;5.816;2022-08-02T10:24:23;27.42;48.59
66019;HTU21D;52787;51.084;5.816;2022-08-02T10:26:53;27.50;48.19
66019;HTU21D;52787;51.084;5.816;2022-08-02T10:29:29;27.53;47.92
66019;HTU21D;52787;51.084;5.816;2022-08-02T10:34:42;27.81;46.36
66019;HTU21D;52787;51.084;5.816;2022-08-02T10:37:13;27.93;45.41
66019;HTU21D;52787;51.084;5.816;2022-08-02T10:39:44;28.03;46.40
66019;HTU21D;52787;51.084;5.816;2022-08-02T10:42:12;28.20;45.71
66019;HTU21D;52787;51.084;5.816;2022-08-02T10:44:38;28.37;45.16
66019;HTU21D;52787;51.084;5.816;2022-08-02T10:49:57;28.68;44.99
66019;HTU21D;52787;51.084;5.816;2022-08-02T10:52:25;28.84;44.72
66019;HTU21D;52787;51.084;5.816;2022-08-02T10:54:58;28.88;43.36
66019;HTU21D;52787;51.084;5.816;2022-08-02T10:57:32;28.97;43.99
66019;HTU21D;52787;51.084;5.816;2022-08-02T11:00:09;29.07;43.33
66019;HTU21D;52787;51.084;5.816;2022-08-02T11:02:45;29.22;43.33
66019;HTU21D;52787;51.084;5.816;2022-08-02T11:05:15;29.33;42.96
66019;HTU21D;52787;51.084;5.816;2022-08-02T11:07:47;30.02;40.20
66019;HTU21D;52787;51.084;5.816;2022-08-02T11:10:40;30.71;38.36
66019;HTU21D;52787;51.084;5.816;2022-08-02T11:13:10;30.97;38.71
66019;HTU21D;52787;51.084;5.816;2022-08-02T11:15:59;31.20;38.69
66019;HTU21D;52787;51.084;5.816;2022-08-02T11:21:31;31.48;37.41
66019;HTU21D;52787;51.084;5.816;2022-08-02T11:24:33;31.40;36.74
66019;HTU21D;52787;51.084;5.816;2022-08-02T11:27:05;31.23;37.19
66019;HTU21D;52787;51.084;5.816;2022-08-02T11:29:43;30.98;38.09
66019;HTU21D;52787;51.084;5.816;2022-08-02T11:32:21;30.52;39.73
66019;HTU21D;52787;51.084;5.816;2022-08-02T11:34:52;30.08;40.02
66019;HTU21D;52787;51.084;5.816;2022-08-02T11:37:33;29.71;41.22
66019;HTU21D;52787;51.084;5.816;2022-08-02T11:40:07;29.46;40.75
66019;HTU21D;52787;51.084;5.816;2022-08-02T11:42:37;29.35;40.74
66019;HTU21D;52787;51.084;5.816;2022-08-02T11:45:06;29.29;40.93
66019;HTU21D;52787;51.084;5.816;2022-08-02T11:47:53;29.30;39.67
66019;HTU21D;52787;51.084;5.816;2022-08-02T11:50:21;29.37;40.13
66019;HTU21D;52787;51.084;5.816;2022-08-02T11:52:51;29.50;40.75
66019;HTU21D;52787;51.084;5.816;2022-08-02T11:55:27;29.61;40.78
66019;HTU21D;52787;51.084;5.816;2022-08-02T11:57:59;29.58;39.97
66019;HTU21D;52787;51.084;5.816;2022-08-02T12:00:25;29.47;39.10
66019;HTU21D;52787;51.084;5.816;2022-08-02T12:02:52;29.39;39.19
66019;HTU21D;52787;51.084;5.816;2022-08-02T12:05:20;29.38;38.83
66019;HTU21D;52787;51.084;5.816;2022-08-02T12:07:50;29.34;39.14
66019;HTU21D;52787;51.084;5.816;2022-08-02T12:10:20;29.23;39.65
66019;HTU21D;52787;51.084;5.816;2022-08-02T12:12:55;29.17;39.85
66019;HTU21D;52787;51.084;5.816;2022-08-02T12:15:42;29.12;40.23
66019;HTU21D;52787;51.084;5.816;2022-08-02T12:18:18;29.04;40.15
66019;HTU21D;52787;51.084;5.816;2022-08-02T12:21:21;28.93;39.94
66019;HTU21D;52787;51.084;5.816;2022-08-02T12:23:48;28.89;40.49
66019;HTU21D;52787;51.084;5.816;2022-08-02T12:26:14;28.86;40.41
66019;HTU21D;52787;51.084;5.816;2022-08-02T12:28:40;28.87;41.02
66019;HTU21D;52787;51.084;5.816;2022-08-02T12:31:08;29.03;40.98
66019;HTU21D;52787;51.084;5.816;2022-08-02T12:33:46;29.31;40.45
66019;HTU21D;52787;51.084;5.816;2022-08-02T12:36:21;29.61;38.83
66019;HTU21D;52787;51.084;5.816;2022-08-02T12:38:56;29.83;38.90
66019;HTU21D;52787;51.084;5.816;2022-08-02T12:41:25;30.02;38.09
66019;HTU21D;52787;51.084;5.816;2022-08-02T12:43:53;30.18;36.68
66019;HTU21D;52787;51.084;5.816;2022-08-02T12:46:23;30.40;36.17
66019;HTU21D;52787;51.084;5.816;2022-08-02T12:48:49;30.57;36.53
66019;HTU21D;52787;51.084;5.816;2022-08-02T12:51:35;30.70;36.99
66019;HTU21D;52787;51.084;5.816;2022-08-02T12:54:14;30.84;36.93
66019;HTU21D;52787;51.084;5.816;2022-08-02T12:56:42;30.92;36.24
66019;HTU21D;52787;51.084;5.816;2022-08-02T12:59:09;30.96;35.31
66019;HTU21D;52787;51.084;5.816;2022-08-02T13:01:35;30.93;34.84
66019;HTU21D;52787;51.084;5.816;2022-08-02T13:04:01;30.91;35.11
66019;HTU21D;52787;51.084;5.816;2022-08-02T13:06:27;31.02;34.70
66019;HTU21D;52787;51.084;5.816;2022-08-02T13:08:53;31.21;33.25
66019;HTU21D;52787;51.084;5.816;2022-08-02T13:11:21;32.64;30.32
66019;HTU21D;52787;51.084;5.816;2022-08-02T13:13:47;34.26;27.33
66019;HTU21D;52787;51.084;5.816;2022-08-02T13:16:13;35.44;25.49
66019;HTU21D;52787;51.084;5.816;2022-08-02T13:18:39;36.48;24.49
66019;HTU21D;52787;51.084;5.816;2022-08-02T13:21:06;37.37;23.14
66019;HTU21D;52787;51.084;5.816;2022-08-02T13:23:34;37.90;22.48
66019;HTU21D;52787;51.084;5.816;2022-08-02T13:26:01;38.01;22.58
66019;HTU21D;52787;51.084;5.816;2022-08-02T13:28:27;37.41;23.32
66019;HTU21D;52787;51.084;5.816;2022-08-02T13:30:53;36.60;24.84
66019;HTU21D;52787;51.084;5.816;2022-08-02T13:33:19;36.09;24.83
66019;HTU21D;52787;51.084;5.816;2022-08-02T13:35:46;35.67;25.11
66019;HTU21D;52787;51.084;5.816;2022-08-02T13:38:12;35.41;25.47
66019;HTU21D;52787;51.084;5.816;2022-08-02T13:40:38;35.35;24.96
66019;HTU21D;52787;51.084;5.816;2022-08-02T13:43:22;35.58;24.73
66019;HTU21D;52787;51.084;5.816;2022-08-02T13:45:48;36.19;24.33
66019;HTU21D;52787;51.084;5.816;2022-08-02T13:48:14;37.06;23.17
66019;HTU21D;52787;51.084;5.816;2022-08-02T13:50:40;38.08;21.78
66019;HTU21D;52787;51.084;5.816;2022-08-02T13:53:05;38.76;20.93
66019;HTU21D;52787;51.084;5.816;2022-08-02T13:55:31;39.02;20.40
66019;HTU21D;52787;51.084;5.816;2022-08-02T13:57:57;39.20;20.22
66019;HTU21D;52787;51.084;5.816;2022-08-02T14:00:24;39.22;20.54
66019;HTU21D;52787;51.084;5.816;2022-08-02T14:02:50;38.60;20.89
66019;HTU21D;52787;51.084;5.816;2022-08-02T14:05:16;37.91;21.41
66019;HTU21D;52787;51.084;5.816;2022-08-02T14:07:41;37.34;22.62
66019;HTU21D;52787;51.084;5.816;2022-08-02T14:10:07;37.61;22.13
66019;HTU21D;52787;51.084;5.816;2022-08-02T14:12:33;38.25;21.78
66019;HTU21D;52787;51.084;5.816;2022-08-02T14:14:59;39.08;20.93
66019;HTU21D;52787;51.084;5.816;2022-08-02T14:17:26;39.73;19.81
66019;HTU21D;52787;51.084;5.816;2022-08-02T14:19:51;40.26;19.04
66019;HTU21D;52787;51.084;5.816;2022-08-02T14:22:17;40.86;18.43
66019;HTU21D;52787;51.084;5.816;2022-08-02T14:24:43;41.07;17.56
66019;HTU21D;52787;51.084;5.816;2022-08-02T14:27:09;41.13;17.53
66019;HTU21D;52787;51.084;5.816;2022-08-02T14:29:35;41.09;17.59
66019;HTU21D;52787;51.084;5.816;2022-08-02T14:32:01;41.01;17.82
66019;HTU21D;52787;51.084;5.816;2022-08-02T14:34:27;41.10;17.79
66019;HTU21D;52787;51.084;5.816;2022-08-02T14:36:55;41.06;17.82
66019;HTU21D;52787;51.084;5.816;2022-08-02T14:39:22;41.19;17.75
66019;HTU21D;52787;51.084;5.816;2022-08-02T14:41:49;41.22;17.64
66019;HTU21D;52787;51.084;5.816;2022-08-02T14:44:15;41.40;17.54
66019;HTU21D;52787;51.084;5.816;2022-08-02T14:46:40;41.50;17.24
66019;HTU21D;52787;51.084;5.816;2022-08-02T14:49:08;41.25;17.64
66019;HTU21D;52787;51.084;5.816;2022-08-02T14:51:36;41.30;18.00
66019;HTU21D;52787;51.084;5.816;2022-08-02T14:54:07;41.72;17.62
66019;HTU21D;52787;51.084;5.816;2022-08-02T14:56:34;41.99;17.13
66019;HTU21D;52787;51.084;5.816;2022-08-02T14:58:59;42.19;17.19
66019;HTU21D;52787;51.084;5.816;2022-08-02T15:01:26;42.16;16.51
66019;HTU21D;52787;51.084;5.816;2022-08-02T15:03:52;41.30;17.35
66019;HTU21D;52787;51.084;5.816;2022-08-02T15:06:18;39.63;19.53
66019;HTU21D;52787;51.084;5.816;2022-08-02T15:08:44;38.01;21.90
66019;HTU21D;52787;51.084;5.816;2022-08-02T15:11:10;36.76;23.95
66019;HTU21D;52787;51.084;5.816;2022-08-02T15:13:36;35.82;25.11
66019;HTU21D;52787;51.084;5.816;2022-08-02T15:16:02;35.13;26.25
66019;HTU21D;52787;51.084;5.816;2022-08-02T15:18:28;34.71;27.16
66019;HTU21D;52787;51.084;5.816;2022-08-02T15:20:54;34.46;27.79
66019;HTU21D;52787;51.084;5.816;2022-08-02T15:23:20;34.27;28.01
66019;HTU21D;52787;51.084;5.816;2022-08-02T15:25:46;34.11;28.32
66019;HTU21D;52787;51.084;5.816;2022-08-02T15:28:12;34.05;28.71
66019;HTU21D;52787;51.084;5.816;2022-08-02T15:30:38;33.91;28.67
66019;HTU21D;52787;51.084;5.816;2022-08-02T15:33:04;33.80;29.39
66019;HTU21D;52787;51.084;5.816;2022-08-02T15:35:30;33.72;29.26
66019;HTU21D;52787;51.084;5.816;2022-08-02T15:37:56;33.64;29.51
66019;HTU21D;52787;51.084;5.816;2022-08-02T15:40:22;33.58;29.52
66019;HTU21D;52787;51.084;5.816;2022-08-02T15:42:49;33.57;30.04
66019;HTU21D;52787;51.084;5.816;2022-08-02T15:45:15;33.59;29.75
66019;HTU21D;52787;51.084;5.816;2022-08-02T15:47:44;33.60;29.74
66019;HTU21D;52787;51.084;5.816;2022-08-02T15:50:11;33.60;30.19
66019;HTU21D;52787;51.084;5.816;2022-08-02T15:52:37;33.58;30.32